createdAt,value
2019-05-19T00:53:03.425Z,100819.63
2019-05-19T00:55:36.830Z,100830.44
2019-05-19T00:58:09.865Z,100827.00
2019-05-19T01:00:43.031Z,100833.15
2019-05-19T01:03:15.669Z,100834.13
2019-05-19T01:05:49.966Z,100828.34
2019-05-19T01:08:23.450Z,100836.98
2019-05-19T01:10:56.035Z,100841.63
2019-05-19T01:13:29.355Z,100837.16
2019-05-19T01:16:02.770Z,100839.65
2019-05-19T01:18:35.915Z,100845.59
2019-05-19T01:21:08.975Z,100842.77
2019-05-19T01:23:42.319Z,100845.52
2019-05-19T01:26:15.575Z,100839.84
2019-05-19T01:28:48.842Z,100856.25
2019-05-19T01:31:21.908Z,100846.80
2019-05-19T01:33:54.988Z,100852.02
2019-05-19T01:36:27.725Z,100861.44
2019-05-19T01:39:00.641Z,100856.73
2019-05-19T01:41:36.248Z,100856.08
2019-05-19T01:44:09.218Z,100866.55
2019-05-19T01:46:42.383Z,100864.19
2019-05-19T01:49:15.184Z,100864.42
2019-05-19T01:51:47.420Z,100867.20
2019-05-19T01:54:20.453Z,100872.16
2019-05-19T01:56:52.743Z,100871.22
2019-05-19T01:59:25.848Z,100873.65
2019-05-19T02:01:58.489Z,100877.22
2019-05-19T02:04:31.814Z,100878.28
2019-05-19T02:07:04.054Z,100877.28
2019-05-19T02:09:39.960Z,100878.75
2019-05-19T02:12:12.111Z,100885.91
2019-05-19T02:14:47.186Z,100886.14
2019-05-19T02:17:19.936Z,100881.66
2019-05-19T02:19:52.937Z,100876.30
2019-05-19T02:22:25.345Z,100882.41
2019-05-19T02:24:58.676Z,100877.70
2019-05-19T02:27:33.041Z,100878.66
2019-05-19T02:30:06.098Z,100873.78
2019-05-19T02:32:38.530Z,100877.45
2019-05-19T02:35:11.001Z,100879.63
2019-05-19T02:37:42.599Z,100873.38
2019-05-19T02:40:16.004Z,100871.02
2019-05-19T02:42:51.288Z,100869.23
2019-05-19T02:45:24.732Z,100879.30
2019-05-19T02:47:57.153Z,100870.05
2019-05-19T02:50:50.527Z,100868.97
2019-05-19T02:53:08.066Z,100876.95
2019-05-19T02:55:41.958Z,100878.19
2019-05-19T02:58:14.563Z,100866.88
2019-05-19T03:00:47.234Z,100867.14
2019-05-19T03:03:19.939Z,100865.02
2019-05-19T03:05:57.531Z,100875.39
2019-05-19T03:08:30.636Z,100877.59
2019-05-19T03:11:03.793Z,100873.70
2019-05-19T03:13:35.745Z,100860.08
2019-05-19T03:16:08.616Z,100859.52
2019-05-19T03:18:41.564Z,100857.66
2019-05-19T03:21:14.630Z,100854.33
2019-05-19T03:23:48.572Z,100852.49
2019-05-19T03:26:22.008Z,100849.22
2019-05-19T03:28:57.915Z,100853.44
2019-05-19T03:31:31.897Z,100844.52
2019-05-19T03:34:05.613Z,100843.28
2019-05-19T03:36:37.342Z,100838.09
2019-05-19T03:39:09.480Z,100842.39
2019-05-19T03:41:41.719Z,100846.95
2019-05-19T03:44:15.785Z,100848.89
2019-05-19T03:46:48.356Z,100838.32
2019-05-19T03:49:20.682Z,100840.13
2019-05-19T03:51:53.866Z,100839.12
2019-05-19T03:54:27.985Z,100838.12
2019-05-19T03:57:00.784Z,100836.37
2019-05-19T03:59:34.181Z,100830.66
2019-05-19T04:02:06.832Z,100830.92
2019-05-19T04:04:40.750Z,100834.80
2019-05-19T04:07:14.886Z,100827.06
2019-05-19T04:09:47.183Z,100816.14
2019-05-19T04:12:23.250Z,100812.63
2019-05-19T04:14:57.978Z,100807.64
2019-05-19T04:17:32.636Z,100803.84
2019-05-19T04:20:04.372Z,100797.72
2019-05-19T04:22:38.026Z,100792.51
2019-05-19T04:25:11.802Z,100798.27
2019-05-19T04:27:44.224Z,100788.90
2019-05-19T04:30:18.509Z,100793.58
2019-05-19T04:32:51.542Z,100795.25
2019-05-19T04:35:23.603Z,100789.37
2019-05-19T04:37:56.750Z,100785.23
2019-05-19T04:40:29.059Z,100781.70
2019-05-19T04:43:01.748Z,100787.20
2019-05-19T04:45:34.302Z,100783.72
2019-05-19T04:48:09.794Z,100768.98
2019-05-19T04:50:42.339Z,100760.64
2019-05-19T04:53:15.597Z,100755.77
2019-05-19T04:55:48.769Z,100744.92
2019-05-19T04:58:20.928Z,100755.20
2019-05-19T05:00:52.893Z,100745.44
2019-05-19T05:03:25.020Z,100733.61
2019-05-19T05:05:58.238Z,100731.23
2019-05-19T05:08:33.602Z,100735.20
2019-05-19T05:11:06.271Z,100735.69
2019-05-19T05:13:38.667Z,100726.05
2019-05-19T05:16:10.681Z,100728.55
2019-05-19T05:18:43.346Z,100727.98
2019-05-19T05:21:15.845Z,100715.30
2019-05-19T05:23:50.233Z,100708.52
2019-05-19T05:26:22.868Z,100711.09
2019-05-19T05:28:55.381Z,100705.31
2019-05-19T05:31:29.184Z,100711.22
2019-05-19T05:34:01.010Z,100704.19
2019-05-19T05:36:32.788Z,100707.93
2019-05-19T05:39:06.390Z,100693.31
2019-05-19T05:41:39.668Z,100685.27
2019-05-19T05:44:12.145Z,100688.03
2019-05-19T05:46:44.948Z,100681.66
2019-05-19T05:49:19.325Z,100679.96
2019-05-19T05:51:52.307Z,100682.41
2019-05-19T05:54:25.523Z,100676.38
2019-05-19T05:56:58.105Z,100678.58
2019-05-19T05:59:30.117Z,100668.01
2019-05-19T06:02:02.228Z,100666.13
2019-05-19T06:04:34.326Z,100660.72
2019-05-19T06:07:06.945Z,100650.59
2019-05-19T06:09:40.151Z,100639.06
2019-05-19T06:12:12.877Z,100648.59
2019-05-19T06:14:45.915Z,100642.42
2019-05-19T06:17:19.640Z,100632.42
2019-05-19T06:19:55.344Z,100627.34
2019-05-19T06:22:27.125Z,100618.47
2019-05-19T06:25:00.859Z,100620.91
2019-05-19T06:27:34.867Z,100627.95
2019-05-19T06:30:09.082Z,100608.67
2019-05-19T06:32:44.019Z,100602.45
2019-05-19T06:35:16.566Z,100603.35
2019-05-19T06:37:49.243Z,100596.48
2019-05-19T06:40:23.182Z,100593.46
2019-05-19T06:42:56.200Z,100585.99
2019-05-19T06:45:29.579Z,100586.91
2019-05-19T06:48:03.481Z,100585.06
2019-05-19T06:50:40.406Z,100580.13
2019-05-19T06:53:14.604Z,100573.22
2019-05-19T06:55:47.171Z,100566.88
2019-05-19T06:58:20.788Z,100565.84
2019-05-19T07:00:53.395Z,100563.78
2019-05-19T07:03:27.572Z,100558.14
2019-05-19T07:06:00.018Z,100554.91
2019-05-19T07:08:32.431Z,100549.23
2019-05-19T07:11:05.240Z,100555.59
2019-05-19T07:13:37.701Z,100544.16
2019-05-19T07:16:10.226Z,100532.88
2019-05-19T07:18:42.838Z,100528.73
2019-05-19T07:21:15.799Z,100521.20
2019-05-19T07:23:48.355Z,100520.95
2019-05-19T07:26:21.396Z,100519.15
2019-05-19T07:28:53.939Z,100510.03
2019-05-19T07:31:26.305Z,100508.39
2019-05-19T07:33:58.337Z,100493.78
2019-05-19T07:36:30.669Z,100493.20
2019-05-19T07:39:02.896Z,100493.06
2019-05-19T07:41:35.882Z,100494.34
2019-05-19T07:44:08.588Z,100484.20
2019-05-19T07:46:41.388Z,100475.22
2019-05-19T07:49:14.197Z,100463.91
2019-05-19T07:51:46.742Z,100476.36
2019-05-19T07:54:19.089Z,100470.92
2019-05-19T07:56:51.829Z,100463.55
2019-05-19T07:59:24.101Z,100471.02
2019-05-19T08:01:57.186Z,100467.70
2019-05-19T08:04:30.805Z,100460.20
2019-05-19T08:07:03.476Z,100462.51
2019-05-19T08:09:35.910Z,100444.05
2019-05-19T08:12:09.406Z,100441.39
2019-05-19T08:14:46.337Z,100442.67
2019-05-19T08:17:19.003Z,100432.63
2019-05-19T08:19:51.207Z,100430.53
2019-05-19T08:22:23.448Z,100420.47
2019-05-19T08:24:56.561Z,100428.46
2019-05-19T08:27:30.569Z,100420.14
2019-05-19T08:30:03.948Z,100412.62
2019-05-19T08:32:37.156Z,100416.40
2019-05-19T08:35:22.324Z,100416.55
2019-05-19T08:37:57.289Z,100414.83
2019-05-19T08:40:31.322Z,100405.48
2019-05-19T08:43:03.148Z,100407.55
2019-05-19T08:45:37.177Z,100409.44
2019-05-19T08:48:10.096Z,100399.03
2019-05-19T08:50:42.514Z,100401.12
2019-05-19T08:53:14.817Z,100397.65
2019-05-19T08:55:47.112Z,100397.76
2019-05-19T08:58:19.809Z,100397.30
2019-05-19T09:00:52.527Z,100382.80
2019-05-19T09:03:25.219Z,100396.56
2019-05-19T09:06:00.608Z,100392.41
2019-05-19T09:08:33.199Z,100395.06
2019-05-19T09:11:09.016Z,100390.55
2019-05-19T09:13:41.728Z,100388.86
2019-05-19T09:16:16.058Z,100382.38
2019-05-19T09:18:48.288Z,100382.95
2019-05-19T09:21:21.581Z,100385.37
2019-05-19T09:23:54.531Z,100381.78
2019-05-19T09:26:26.895Z,100382.03
2019-05-19T09:29:00.920Z,100379.13
2019-05-19T09:31:33.845Z,100377.26
2019-05-19T09:34:06.606Z,100366.75
2019-05-19T09:36:43.704Z,100367.56
2019-05-19T09:39:16.986Z,100369.42
2019-05-19T09:41:50.525Z,100360.45
2019-05-19T09:44:26.237Z,100355.10
2019-05-19T09:47:08.428Z,100361.93
2019-05-19T09:49:42.367Z,100360.91
2019-05-19T09:52:17.585Z,100359.16
2019-05-19T09:54:51.250Z,100361.27
2019-05-19T09:57:23.988Z,100362.05
2019-05-19T09:59:56.922Z,100363.89
2019-05-19T10:02:29.333Z,100370.81
2019-05-19T10:05:02.220Z,100368.41
2019-05-19T10:07:34.385Z,100380.20
2019-05-19T10:10:10.870Z,100386.18
2019-05-19T10:12:44.275Z,100384.70
2019-05-19T10:15:21.596Z,100385.84
2019-05-19T10:17:54.447Z,100383.53
2019-05-19T10:20:27.808Z,100380.56
2019-05-19T10:22:59.945Z,100384.91
2019-05-19T10:25:31.997Z,100389.87
2019-05-19T10:28:05.779Z,100395.06
2019-05-19T10:30:41.970Z,100391.02
2019-05-19T10:33:14.622Z,100388.61
2019-05-19T10:35:46.501Z,100398.88
2019-05-19T10:38:18.674Z,100392.55
2019-05-19T10:40:51.108Z,100394.05
2019-05-19T10:43:23.955Z,100390.92
2019-05-19T10:45:57.583Z,100392.55
2019-05-19T10:48:30.032Z,100392.20
2019-05-19T10:51:11.498Z,100407.44
2019-05-19T10:53:43.015Z,100408.16
2019-05-19T10:56:15.574Z,100416.66
2019-05-19T10:58:49.672Z,100409.28
2019-05-19T11:01:24.924Z,100414.47
2019-05-19T11:03:58.763Z,100417.50
2019-05-19T11:06:39.140Z,100418.12
2019-05-19T11:09:12.193Z,100420.64
2019-05-19T11:11:47.418Z,100428.62
2019-05-19T11:14:25.995Z,100428.23
2019-05-19T11:16:59.883Z,100426.99
2019-05-19T11:19:34.194Z,100428.48
2019-05-19T11:22:07.444Z,100439.23
2019-05-19T11:24:39.875Z,100441.86
2019-05-19T11:27:12.474Z,100443.39
2019-05-19T11:29:44.587Z,100449.25
2019-05-19T11:32:17.710Z,100451.13
2019-05-19T11:34:51.651Z,100459.89
2019-05-19T11:37:24.786Z,100457.13
2019-05-19T11:39:58.021Z,100461.27
2019-05-19T11:42:33.080Z,100467.48
2019-05-19T11:45:06.147Z,100472.91
2019-05-19T11:47:39.286Z,100486.05
2019-05-19T11:50:12.959Z,100491.01
2019-05-19T11:52:45.991Z,100497.11
2019-05-19T11:55:19.121Z,100499.52
2019-05-19T11:57:54.774Z,100500.12
2019-05-19T12:00:27.047Z,100499.63
2019-05-19T12:02:59.006Z,100501.48
2019-05-19T12:05:31.695Z,100507.00
2019-05-19T12:08:07.892Z,100516.94
2019-05-19T12:10:40.211Z,100522.23
2019-05-19T12:13:13.025Z,100528.78
2019-05-19T12:15:45.738Z,100534.81
2019-05-19T12:18:25.275Z,100542.96
2019-05-19T12:21:04.667Z,100550.34
2019-05-19T12:23:39.218Z,100546.55
2019-05-19T12:26:23.318Z,100558.18
2019-05-19T12:28:49.854Z,100555.09
2019-05-19T12:31:25.343Z,100555.31
2019-05-19T12:33:58.317Z,100551.03
2019-05-19T12:36:31.262Z,100550.24
2019-05-19T12:39:04.144Z,100549.88
2019-05-19T12:41:37.309Z,100554.38
2019-05-19T12:44:09.765Z,100558.41
2019-05-19T12:46:48.714Z,100563.38
2019-05-19T12:49:22.219Z,100563.95
2019-05-19T12:52:02.089Z,100564.75
2019-05-19T12:54:36.040Z,100567.39
2019-05-19T12:57:08.225Z,100573.94
2019-05-19T12:59:40.333Z,100577.30
2019-05-19T13:02:24.887Z,100586.51
2019-05-19T13:05:04.776Z,100589.41
2019-05-19T13:07:32.394Z,100594.47
2019-05-19T13:10:05.300Z,100601.03
2019-05-19T13:12:38.116Z,100600.69
2019-05-19T13:15:15.137Z,100601.50
2019-05-19T13:17:47.640Z,100607.50
2019-05-19T13:20:20.062Z,100613.70
2019-05-19T13:22:53.124Z,100620.02
2019-05-19T13:25:26.628Z,100621.41
2019-05-19T13:27:59.726Z,100623.83
2019-05-19T13:30:32.281Z,100636.05
2019-05-19T13:33:08.361Z,100634.64
2019-05-19T13:35:43.967Z,100643.75
2019-05-19T13:38:25.569Z,100646.08
2019-05-19T13:40:57.250Z,100648.00
2019-05-19T13:43:29.934Z,100656.20
2019-05-19T13:46:04.377Z,100652.21
2019-05-19T13:48:37.269Z,100659.22
2019-05-19T13:51:10.329Z,100674.80
2019-05-19T13:53:43.354Z,100671.19
2019-05-19T13:56:15.797Z,100684.06
2019-05-19T13:58:48.630Z,100683.84
2019-05-19T14:01:28.687Z,100688.21
2019-05-19T14:03:54.675Z,100692.36
2019-05-19T14:06:27.673Z,100690.38
2019-05-19T14:09:01.456Z,100706.27
2019-05-19T14:11:36.127Z,100707.39
2019-05-19T14:14:10.377Z,100721.13
2019-05-19T14:16:43.276Z,100718.00
2019-05-19T14:19:16.074Z,100731.19
2019-05-19T14:21:48.995Z,100733.25
2019-05-19T14:24:21.407Z,100740.64
2019-05-19T14:26:54.390Z,100741.59
2019-05-19T14:29:26.707Z,100744.44
2019-05-19T14:32:06.786Z,100747.94
2019-05-19T14:34:39.408Z,100759.37
2019-05-19T14:37:11.701Z,100764.98
2019-05-19T14:39:44.718Z,100766.57
2019-05-19T14:42:18.974Z,100764.08
2019-05-19T14:44:51.692Z,100761.86
2019-05-19T14:47:25.303Z,100758.28
2019-05-19T14:49:57.709Z,100762.56
2019-05-19T14:52:30.406Z,100770.52
2019-05-19T14:55:28.436Z,100774.91
2019-05-19T14:58:03.365Z,100784.86
2019-05-19T15:00:35.462Z,100785.84
2019-05-19T15:03:09.200Z,100786.74
2019-05-19T15:05:41.729Z,100792.04
2019-05-19T15:08:14.609Z,100787.75
2019-05-19T15:10:47.540Z,100789.22
2019-05-19T15:13:22.592Z,100785.78
2019-05-19T15:15:57.953Z,100799.03
2019-05-19T15:20:16.656Z,100798.73
2019-05-19T15:22:51.744Z,100803.50
2019-05-19T15:25:24.351Z,100812.50
2019-05-19T15:28:05.639Z,100815.89
2019-05-19T15:30:44.115Z,100817.19
2019-05-19T15:33:25.237Z,100809.45
2019-05-19T15:35:58.009Z,100820.92
2019-05-19T15:38:30.847Z,100817.61
2019-05-19T15:41:03.263Z,100829.55
2019-05-19T15:43:36.147Z,100830.59
2019-05-19T15:46:11.762Z,100835.14
2019-05-19T15:48:45.323Z,100843.14
2019-05-19T15:51:28.735Z,100849.63
2019-05-19T15:53:55.326Z,100842.88
2019-05-19T15:56:27.524Z,100845.34
2019-05-19T15:59:00.155Z,100847.98
2019-05-19T16:01:33.228Z,100845.71
2019-05-19T16:04:06.890Z,100841.35
2019-05-19T16:06:40.169Z,100841.91
2019-05-19T16:09:18.713Z,100852.73
2019-05-19T16:11:51.162Z,100854.37
2019-05-19T16:14:23.893Z,100850.45
2019-05-19T16:17:03.079Z,100851.44
2019-05-19T16:19:36.528Z,100841.20
2019-05-19T16:22:09.189Z,100838.44
2019-05-19T16:24:49.172Z,100841.52
2019-05-19T16:27:22.136Z,100849.16
2019-05-19T16:30:02.057Z,100850.94
2019-05-19T16:32:34.521Z,100841.95
2019-05-19T16:35:11.177Z,100845.34
2019-05-19T16:37:51.599Z,100836.35
2019-05-19T16:40:25.401Z,100839.19
2019-05-19T16:42:58.176Z,100842.52
2019-05-19T16:45:30.619Z,100844.05
2019-05-19T16:48:02.862Z,100837.06
2019-05-19T16:50:35.336Z,100837.88
2019-05-19T16:53:08.091Z,100830.45
2019-05-19T16:55:44.775Z,100829.33
2019-05-19T16:58:21.196Z,100823.56
2019-05-19T17:00:59.100Z,100822.14
2019-05-19T17:03:31.657Z,100820.28
2019-05-19T17:06:12.270Z,100822.78
2019-05-19T17:08:45.915Z,100824.08
2019-05-19T17:11:22.410Z,100819.86
2019-05-19T17:13:56.474Z,100800.06
2019-05-19T17:16:32.838Z,100802.19
2019-05-19T17:19:05.139Z,100802.59
2019-05-19T17:21:36.993Z,100801.22
2019-05-19T17:24:09.062Z,100797.45
2019-05-19T17:26:41.038Z,100798.45
2019-05-19T17:29:13.500Z,100790.92
2019-05-19T17:31:45.774Z,100787.67
2019-05-19T17:34:18.251Z,100787.08
2019-05-19T17:36:50.206Z,100783.25
2019-05-19T17:39:22.686Z,100787.62
2019-05-19T17:41:55.495Z,100777.38
2019-05-19T17:44:28.200Z,100774.80
2019-05-19T17:47:01.490Z,100771.33
2019-05-19T17:49:34.898Z,100766.23
2019-05-19T17:52:15.034Z,100763.06
2019-05-19T17:54:49.458Z,100761.08
2019-05-19T17:57:22.428Z,100762.50
2019-05-19T17:59:56.360Z,100764.29
2019-05-19T18:02:32.528Z,100767.75
2019-05-19T18:05:05.372Z,100763.47
2019-05-19T18:07:38.263Z,100761.86
2019-05-19T18:10:10.628Z,100759.52
2019-05-19T18:12:43.027Z,100758.63
2019-05-19T18:15:23.628Z,100750.19
2019-05-19T18:17:56.778Z,100748.17
2019-05-19T18:20:31.871Z,100753.28
2019-05-19T18:23:05.037Z,100740.20
2019-05-19T18:25:43.146Z,100739.90
2019-05-19T18:28:15.900Z,100736.95
2019-05-19T18:30:48.550Z,100731.98
2019-05-19T18:33:22.186Z,100726.06
2019-05-19T18:35:58.062Z,100724.31
2019-05-19T18:38:30.541Z,100724.31
2019-05-19T18:41:03.837Z,100718.34
2019-05-19T18:43:37.238Z,100714.99
2019-05-19T18:48:50.420Z,100704.11
2019-05-19T18:51:23.301Z,100695.48
2019-05-19T18:53:56.101Z,100685.67
2019-05-19T18:56:36.142Z,100678.64
2019-05-19T18:59:09.000Z,100681.13
2019-05-19T19:01:41.791Z,100681.69
2019-05-19T19:04:16.187Z,100681.78
2019-05-19T19:06:55.116Z,100684.62
2019-05-19T19:09:29.329Z,100682.30
2019-05-19T19:12:02.542Z,100685.54
2019-05-19T19:14:35.475Z,100681.78
2019-05-19T19:17:08.301Z,100678.56
2019-05-19T19:19:41.762Z,100671.16
2019-05-19T19:22:15.220Z,100664.59
2019-05-19T19:24:48.521Z,100665.16
2019-05-19T19:27:25.273Z,100667.50
2019-05-19T19:30:03.713Z,100668.50
2019-05-19T19:32:35.236Z,100675.78
2019-05-19T19:35:09.661Z,100671.79
2019-05-19T19:37:43.284Z,100673.28
2019-05-19T19:40:16.034Z,100670.83
2019-05-19T19:42:51.254Z,100669.55
2019-05-19T19:45:26.049Z,100670.73
2019-05-19T19:47:59.457Z,100666.22
2019-05-19T19:50:32.392Z,100665.64
2019-05-19T19:53:04.996Z,100666.83
2019-05-19T19:55:37.980Z,100664.45
2019-05-19T19:58:10.820Z,100663.70
2019-05-19T20:00:45.784Z,100662.92
2019-05-19T20:03:18.980Z,100672.58
2019-05-19T20:05:56.386Z,100671.64
2019-05-19T20:08:30.373Z,100672.31
2019-05-19T20:11:11.976Z,100676.05
2019-05-19T20:13:44.914Z,100667.20
2019-05-19T20:16:25.025Z,100672.09
2019-05-19T20:19:09.187Z,100676.12
2019-05-19T20:21:42.114Z,100671.75
2019-05-19T20:24:14.444Z,100667.20
2019-05-19T20:26:46.797Z,100657.41
2019-05-19T20:29:19.471Z,100654.16
2019-05-19T20:31:58.807Z,100656.33
2019-05-19T20:34:32.174Z,100650.81
2019-05-19T20:37:05.096Z,100654.27
2019-05-19T20:39:37.979Z,100649.50
2019-05-19T20:42:17.835Z,100654.53
2019-05-19T20:44:50.638Z,100658.38
2019-05-19T20:47:29.708Z,100655.20
2019-05-19T20:50:02.541Z,100661.36
2019-05-19T20:52:36.182Z,100665.83
2019-05-19T20:57:53.269Z,100655.76
2019-05-19T21:00:26.348Z,100651.42
2019-05-19T21:02:59.348Z,100653.81
2019-05-19T21:05:32.695Z,100653.20
2019-05-19T21:08:05.522Z,100657.53
2019-05-19T21:10:38.515Z,100655.48
2019-05-19T21:13:11.553Z,100656.52
2019-05-19T21:15:47.623Z,100655.01
2019-05-19T21:18:22.023Z,100653.33
2019-05-19T21:20:57.844Z,100655.73
2019-05-19T21:23:31.928Z,100649.34
2019-05-19T21:26:05.217Z,100644.92
2019-05-19T21:28:45.216Z,100642.11
2019-05-19T21:31:24.644Z,100643.67
2019-05-19T21:33:57.094Z,100645.35
2019-05-19T21:36:30.136Z,100656.92
2019-05-19T21:39:02.721Z,100653.73
2019-05-19T21:41:35.902Z,100649.09
2019-05-19T21:44:10.089Z,100653.00
2019-05-19T21:46:43.116Z,100651.20
2019-05-19T21:49:15.636Z,100651.84
2019-05-19T21:51:47.865Z,100658.45
2019-05-19T21:54:20.880Z,100656.66
2019-05-19T21:56:53.779Z,100656.73
2019-05-19T21:59:26.739Z,100660.42
2019-05-19T22:02:04.088Z,100657.00
2019-05-19T22:04:37.352Z,100663.48
2019-05-19T22:07:11.476Z,100669.08
2019-05-19T22:09:44.777Z,100674.22
2019-05-19T22:12:18.653Z,100672.20
2019-05-19T22:14:57.833Z,100677.20
2019-05-19T22:17:36.856Z,100684.91
2019-05-19T22:20:10.155Z,100675.48
2019-05-19T22:22:42.098Z,100670.11
2019-05-19T22:25:22.998Z,100676.17
2019-05-19T22:27:56.254Z,100672.88
2019-05-19T22:30:29.222Z,100676.27
2019-05-19T22:33:01.885Z,100686.44
2019-05-19T22:35:35.728Z,100684.42
2019-05-19T22:38:09.592Z,100681.33
2019-05-19T22:40:42.796Z,100687.33
2019-05-19T22:43:15.929Z,100683.34
2019-05-19T22:45:48.996Z,100688.64
2019-05-19T22:48:22.038Z,100684.30
2019-05-19T22:50:54.819Z,100682.94
2019-05-19T22:53:32.565Z,100691.88
2019-05-19T22:56:06.767Z,100697.55
2019-05-19T22:58:41.646Z,100699.94
2019-05-19T23:01:14.264Z,100701.53
2019-05-19T23:03:47.741Z,100712.05
2019-05-19T23:06:22.024Z,100712.79
2019-05-19T23:08:54.666Z,100715.86
2019-05-19T23:11:27.199Z,100713.51
2019-05-19T23:13:59.913Z,100714.03
2019-05-19T23:16:32.393Z,100710.78
2019-05-19T23:19:05.322Z,100721.81
2019-05-19T23:21:38.329Z,100716.86
2019-05-19T23:24:12.407Z,100721.78
2019-05-19T23:26:45.084Z,100722.78
2019-05-19T23:29:17.640Z,100728.19
2019-05-19T23:31:50.501Z,100731.92
2019-05-19T23:34:23.217Z,100732.14
2019-05-19T23:36:58.429Z,100732.81
2019-05-19T23:39:32.853Z,100739.30
2019-05-19T23:42:06.010Z,100737.47
2019-05-19T23:44:39.223Z,100747.69
2019-05-19T23:47:11.982Z,100741.00
2019-05-19T23:49:45.445Z,100745.69
2019-05-19T23:52:25.031Z,100743.11
2019-05-19T23:54:58.320Z,100737.59
2019-05-19T23:57:30.075Z,100749.46
